createdAt,value
2022-12-08T00:01:29.581Z,1.40
2022-12-08T00:03:59.278Z,1.40
2022-12-08T00:06:47.778Z,1.40
2022-12-08T00:09:22.022Z,1.40
2022-12-08T00:12:00.755Z,1.40
2022-12-08T00:14:33.321Z,1.40
2022-12-08T00:17:01.308Z,1.40
2022-12-08T00:19:29.169Z,1.40
2022-12-08T00:21:57.149Z,1.40
2022-12-08T00:24:25.911Z,1.40
2022-12-08T00:26:53.282Z,1.40
2022-12-08T00:29:20.365Z,1.40
2022-12-08T00:31:47.980Z,1.40
2022-12-08T00:34:15.514Z,1.40
2022-12-08T00:36:45.500Z,1.40
2022-12-08T00:39:13.667Z,1.30
2022-12-08T00:42:03.351Z,1.40
2022-12-08T00:44:30.342Z,1.30
2022-12-08T00:46:57.643Z,1.30
2022-12-08T00:49:25.208Z,1.20
2022-12-08T00:51:53.012Z,1.20
2022-12-08T00:54:20.627Z,1.20
2022-12-08T00:56:48.489Z,1.20
2022-12-08T00:59:15.702Z,1.20
2022-12-08T01:01:45.491Z,1.20
2022-12-08T01:04:15.784Z,1.20
2022-12-08T01:06:43.720Z,1.20
2022-12-08T01:09:17.738Z,1.20
2022-12-08T01:11:45.886Z,1.20
2022-12-08T01:14:13.481Z,1.20
2022-12-08T01:16:42.001Z,1.10
2022-12-08T01:19:12.177Z,1.10
2022-12-08T01:21:40.584Z,1.10
2022-12-08T01:24:10.571Z,1.10
2022-12-08T01:26:37.821Z,1.20
2022-12-08T01:29:05.154Z,1.20
2022-12-08T01:31:32.600Z,1.20
2022-12-08T01:33:59.638Z,1.20
2022-12-08T01:36:33.053Z,1.20
2022-12-08T01:39:01.828Z,1.30
2022-12-08T01:41:31.927Z,1.30
2022-12-08T01:44:04.201Z,1.30
2022-12-08T01:46:33.415Z,1.30
2022-12-08T01:49:23.437Z,1.30
2022-12-08T01:51:55.281Z,1.30
2022-12-08T01:54:27.744Z,1.30
2022-12-08T01:57:12.719Z,1.30
2022-12-08T01:59:47.136Z,1.30
2022-12-08T02:02:14.502Z,1.30
2022-12-08T02:04:41.533Z,1.30
2022-12-08T02:07:11.694Z,1.30
2022-12-08T02:09:40.820Z,1.40
2022-12-08T02:12:09.849Z,1.30
2022-12-08T02:14:36.929Z,1.30
2022-12-08T02:17:18.510Z,1.30
2022-12-08T02:20:05.220Z,1.30
2022-12-08T02:22:54.673Z,1.30
2022-12-08T02:25:45.649Z,1.40
2022-12-08T02:28:50.562Z,1.40
2022-12-08T02:31:42.245Z,1.40
2022-12-08T02:34:18.079Z,1.50
2022-12-08T02:37:17.910Z,1.40
2022-12-08T02:40:13.847Z,1.40
2022-12-08T02:42:47.097Z,1.40
2022-12-08T02:45:14.291Z,1.40
2022-12-08T02:47:41.317Z,1.50
2022-12-08T02:50:09.757Z,1.40
2022-12-08T02:52:45.505Z,1.50
2022-12-08T02:55:35.816Z,1.50
2022-12-08T02:58:28.786Z,1.40
2022-12-08T03:01:17.871Z,1.50
2022-12-08T03:03:44.795Z,1.50
2022-12-08T03:06:30.616Z,1.50
2022-12-08T03:09:04.468Z,1.50
2022-12-08T03:11:48.779Z,1.50
2022-12-08T03:14:17.811Z,1.50
2022-12-08T03:16:49.916Z,1.50
2022-12-08T03:19:20.916Z,1.50
2022-12-08T03:21:52.647Z,1.50
2022-12-08T03:24:23.133Z,1.40
2022-12-08T03:26:59.564Z,1.40
2022-12-08T03:29:26.707Z,1.40
2022-12-08T03:31:57.583Z,1.40
2022-12-08T03:34:27.868Z,1.40
2022-12-08T03:36:55.568Z,1.40
2022-12-08T03:39:22.561Z,1.50
2022-12-08T03:41:49.811Z,1.50
2022-12-08T03:44:16.878Z,1.50
2022-12-08T03:46:44.278Z,2.00
2022-12-08T03:49:11.359Z,1.50
2022-12-08T03:51:38.673Z,1.50
2022-12-08T03:54:05.713Z,1.50
2022-12-08T03:56:36.255Z,1.50
2022-12-08T03:59:04.024Z,1.60
2022-12-08T04:01:31.886Z,1.50
2022-12-08T04:03:58.991Z,1.50
2022-12-08T04:06:26.320Z,1.60
2022-12-08T04:08:53.454Z,1.50
2022-12-08T04:11:21.036Z,1.50
2022-12-08T04:13:48.456Z,1.50
2022-12-08T04:16:21.807Z,1.50
2022-12-08T04:18:48.926Z,1.50
2022-12-08T04:21:16.517Z,1.40
2022-12-08T04:23:43.710Z,1.40
2022-12-08T04:26:11.585Z,1.40
2022-12-08T04:28:38.716Z,1.40
2022-12-08T04:31:07.036Z,1.40
2022-12-08T04:33:35.211Z,1.40
2022-12-08T04:36:04.759Z,1.40
2022-12-08T04:38:32.362Z,1.40
2022-12-08T04:40:59.746Z,1.40
2022-12-08T04:43:26.769Z,1.40
2022-12-08T04:45:54.129Z,1.40
2022-12-08T04:48:21.173Z,1.30
2022-12-08T04:50:48.573Z,1.30
2022-12-08T04:53:15.860Z,1.40
2022-12-08T04:55:45.145Z,1.30
2022-12-08T04:58:13.893Z,1.30
2022-12-08T05:00:41.984Z,1.30
2022-12-08T05:03:09.434Z,1.40
2022-12-08T05:05:36.853Z,1.30
2022-12-08T05:08:04.427Z,1.30
2022-12-08T05:10:32.363Z,1.40
2022-12-08T05:13:00.198Z,1.40
2022-12-08T05:15:27.671Z,1.40
2022-12-08T05:17:54.861Z,1.40
2022-12-08T05:20:22.146Z,1.40
2022-12-08T05:22:49.265Z,1.40
2022-12-08T05:25:17.063Z,1.40
2022-12-08T05:27:44.239Z,1.40
2022-12-08T05:30:11.723Z,1.40
2022-12-08T05:32:38.710Z,1.40
2022-12-08T05:35:06.750Z,1.40
2022-12-08T05:37:33.777Z,1.40
2022-12-08T05:40:01.272Z,1.40
2022-12-08T05:42:28.316Z,1.40
2022-12-08T05:44:55.675Z,1.50
2022-12-08T05:47:22.711Z,1.60
2022-12-08T05:49:50.002Z,1.60
2022-12-08T05:52:17.714Z,1.60
2022-12-08T05:54:45.116Z,1.50
2022-12-08T05:57:12.110Z,1.50
2022-12-08T05:59:39.723Z,1.50
2022-12-08T06:02:09.536Z,1.50
2022-12-08T06:04:37.418Z,1.40
2022-12-08T06:07:04.507Z,1.40
2022-12-08T06:09:32.192Z,1.40
2022-12-08T06:11:59.246Z,1.40
2022-12-08T06:14:26.552Z,1.30
2022-12-08T06:16:53.737Z,1.30
2022-12-08T06:19:21.018Z,1.30
2022-12-08T06:21:47.995Z,1.30
2022-12-08T06:24:15.317Z,1.30
2022-12-08T06:26:43.332Z,1.30
2022-12-08T06:29:10.621Z,1.30
2022-12-08T06:31:37.596Z,1.30
2022-12-08T06:34:06.145Z,1.30
2022-12-08T06:36:34.635Z,1.30
2022-12-08T06:39:02.163Z,1.30
2022-12-08T06:41:29.184Z,1.30
2022-12-08T06:43:57.615Z,1.30
2022-12-08T06:46:24.782Z,1.30
2022-12-08T06:48:52.187Z,1.30
2022-12-08T06:51:23.467Z,1.30
2022-12-08T06:53:50.794Z,1.20
2022-12-08T06:56:20.127Z,1.20
2022-12-08T06:58:52.422Z,1.20
2022-12-08T07:01:20.168Z,1.20
2022-12-08T07:03:49.000Z,1.20
2022-12-08T07:06:19.354Z,1.20
2022-12-08T07:08:46.783Z,1.20
2022-12-08T07:11:19.784Z,1.20
2022-12-08T07:13:49.311Z,1.10
2022-12-08T07:16:16.642Z,1.10
2022-12-08T07:18:44.185Z,1.20
2022-12-08T07:21:13.334Z,1.20
2022-12-08T07:23:41.070Z,1.20
2022-12-08T07:26:10.576Z,1.30
2022-12-08T07:28:40.009Z,1.30
2022-12-08T07:31:09.534Z,1.30
2022-12-08T07:33:36.849Z,1.40
2022-12-08T07:36:06.607Z,1.40
2022-12-08T07:38:34.111Z,1.30
2022-12-08T07:41:01.594Z,1.30
2022-12-08T07:43:29.019Z,1.30
2022-12-08T07:45:56.036Z,1.30
2022-12-08T07:48:23.436Z,1.40
2022-12-08T07:50:50.463Z,1.40
2022-12-08T07:53:17.788Z,1.40
2022-12-08T07:55:45.061Z,1.40
2022-12-08T07:58:12.339Z,1.30
2022-12-08T08:00:39.351Z,1.30
2022-12-08T08:03:08.881Z,1.40
2022-12-08T08:05:35.952Z,1.50
2022-12-08T08:08:03.449Z,1.60
2022-12-08T08:10:31.651Z,1.60
2022-12-08T08:12:59.730Z,1.70
2022-12-08T08:15:28.086Z,1.70
2022-12-08T08:17:55.512Z,1.80
2022-12-08T08:20:22.678Z,1.90
2022-12-08T08:22:51.135Z,1.90
2022-12-08T08:25:20.432Z,1.90
2022-12-08T08:27:51.819Z,1.80
2022-12-08T08:30:21.027Z,1.80
2022-12-08T08:32:49.585Z,1.80
2022-12-08T08:35:17.057Z,1.70
2022-12-08T08:37:48.921Z,1.70
2022-12-08T08:40:17.621Z,1.60
2022-12-08T08:42:45.015Z,1.60
2022-12-08T08:45:12.126Z,1.60
2022-12-08T08:47:39.462Z,1.60
2022-12-08T08:50:07.529Z,1.50
2022-12-08T08:52:35.237Z,1.60
2022-12-08T08:55:02.248Z,1.60
2022-12-08T08:57:29.673Z,1.60
2022-12-08T08:59:56.723Z,1.60
2022-12-08T09:02:24.071Z,1.50
2022-12-08T09:04:51.441Z,1.40
2022-12-08T09:07:20.274Z,1.40
2022-12-08T09:09:48.657Z,1.50
2022-12-08T09:12:15.957Z,1.70
2022-12-08T09:14:42.931Z,1.70
2022-12-08T09:17:10.238Z,1.70
2022-12-08T09:19:37.626Z,1.70
2022-12-08T09:22:05.400Z,1.80
2022-12-08T09:24:32.423Z,1.80
2022-12-08T09:26:59.777Z,1.70
2022-12-08T09:29:31.056Z,1.80
2022-12-08T09:32:01.581Z,1.80
2022-12-08T09:34:28.695Z,1.70
2022-12-08T09:36:57.661Z,1.70
2022-12-08T09:39:24.827Z,1.70
2022-12-08T09:42:05.308Z,1.60
2022-12-08T09:44:50.676Z,1.70
2022-12-08T09:47:22.519Z,1.60
2022-12-08T09:49:59.923Z,1.70
2022-12-08T09:52:33.732Z,1.70
2022-12-08T09:55:09.804Z,1.60
2022-12-08T09:57:37.281Z,1.60
2022-12-08T10:00:07.603Z,1.50
2022-12-08T10:02:35.186Z,1.50
2022-12-08T10:05:05.024Z,1.50
2022-12-08T10:07:46.107Z,1.60
2022-12-08T10:10:36.674Z,1.70
2022-12-08T10:13:17.741Z,1.80
2022-12-08T10:16:14.025Z,1.90
2022-12-08T10:18:46.666Z,2.00
2022-12-08T10:21:19.744Z,2.00
2022-12-08T10:23:52.839Z,2.00
2022-12-08T10:26:21.951Z,2.10
2022-12-08T10:28:49.983Z,2.10
2022-12-08T10:31:19.573Z,2.20
2022-12-08T10:33:52.605Z,2.20
2022-12-08T10:36:19.814Z,2.30
2022-12-08T10:38:47.710Z,2.40
2022-12-08T10:41:19.618Z,2.50
2022-12-08T10:43:52.923Z,2.60
2022-12-08T10:46:23.268Z,2.70
2022-12-08T10:48:56.247Z,2.70
2022-12-08T10:51:33.576Z,2.80
2022-12-08T10:54:01.343Z,2.80
2022-12-08T10:56:31.124Z,2.70
2022-12-08T10:59:19.229Z,2.60
2022-12-08T11:01:51.797Z,2.70
2022-12-08T11:04:36.563Z,2.70
2022-12-08T11:07:06.325Z,2.80
2022-12-08T11:09:48.583Z,2.80
2022-12-08T11:12:17.749Z,2.90
2022-12-08T11:14:45.035Z,2.80
2022-12-08T11:17:24.634Z,2.90
2022-12-08T11:20:09.943Z,3.00
2022-12-08T11:22:45.204Z,2.90
2022-12-08T11:37:50.596Z,2.80
2022-12-08T11:40:20.994Z,2.40
2022-12-08T11:43:26.778Z,2.40
2022-12-08T11:46:00.354Z,2.20
2022-12-08T11:48:35.699Z,2.10
2022-12-08T11:51:06.441Z,2.10
2022-12-08T11:53:47.541Z,2.10
2022-12-08T11:56:37.394Z,2.00
2022-12-08T11:59:26.511Z,2.00
2022-12-08T12:01:54.117Z,2.00
2022-12-08T12:04:57.464Z,1.70
2022-12-08T12:07:50.111Z,1.60
2022-12-08T12:10:25.617Z,1.30
2022-12-08T12:13:04.930Z,1.10
2022-12-08T12:15:59.728Z,0.90
2022-12-08T12:18:29.249Z,0.90
2022-12-08T12:21:22.803Z,0.90
